Time;durP1;ratioP1;P1;durP2;ratioP2;P2;SDS_P1;SDS_P2;PMS_P1;PMS_P2;Temp;Humidity;BMP_temperature;BMP_pressure;BME280_temperature;BME280_humidity;BME280_pressure;Samples;Min_cycle;Max_cycle;Signal;HPM_P1;HPM_P2
2021/10/15 04:02:19;;;;;;;57.70;14.70;;;4.90;99.70;;;;;;5030445;28;20173;-61
2021/10/15 04:04:46;;;;;;;56.60;13.53;;;4.80;99.70;;;;;;5030081;28;20577;-62
2021/10/15 04:07:12;;;;;;;58.77;17.10;;;4.80;99.70;;;;;;5029263;28;20445;-61
2021/10/15 04:09:39;;;;;;;59.90;19.07;;;4.70;99.70;;;;;;5029759;28;20871;-61
2021/10/15 04:12:07;;;;;;;62.60;26.07;;;4.60;99.70;;;;;;5027870;28;20452;-63
2021/10/15 04:14:34;;;;;;;61.27;24.20;;;4.60;99.70;;;;;;5029704;28;20544;-63
2021/10/15 04:17:00;;;;;;;61.17;21.63;;;4.60;99.70;;;;;;5029212;28;20510;-63
2021/10/15 04:19:28;;;;;;;62.73;20.70;;;4.60;99.70;;;;;;5029554;28;20444;-63
2021/10/15 04:21:55;;;;;;;61.93;22.87;;;4.60;99.70;;;;;;5029798;28;20449;-62
2021/10/15 04:24:22;;;;;;;63.13;25.20;;;4.60;99.70;;;;;;5029688;28;21017;-60
2021/10/15 04:26:48;;;;;;;65.23;28.53;;;4.60;99.70;;;;;;5029076;28;21002;-61
2021/10/15 04:29:15;;;;;;;62.70;22.90;;;4.60;99.70;;;;;;5029624;28;20448;-61
2021/10/15 04:31:42;;;;;;;61.67;17.13;;;4.70;99.70;;;;;;5029785;28;20812;-63
2021/10/15 04:34:08;;;;;;;61.77;19.23;;;4.80;99.70;;;;;;5029521;28;20475;-61
2021/10/15 04:36:36;;;;;;;58.40;15.33;;;4.60;99.70;;;;;;5028980;28;20480;-61
2021/10/15 04:39:03;;;;;;;56.93;15.70;;;4.60;99.70;;;;;;5029677;28;20539;-58
2021/10/15 04:41:30;;;;;;;57.80;15.07;;;4.60;99.70;;;;;;5029481;28;20487;-61
2021/10/15 04:43:57;;;;;;;57.93;16.17;;;4.50;99.70;;;;;;5029293;28;20944;-61
2021/10/15 04:46:23;;;;;;;57.70;13.37;;;4.50;99.70;;;;;;5029043;28;20450;-61
2021/10/15 04:48:50;;;;;;;59.63;17.70;;;4.50;99.70;;;;;;5029389;28;20452;-63
2021/10/15 04:51:17;;;;;;;59.23;17.40;;;4.60;99.70;;;;;;5029460;28;20472;-61
2021/10/15 04:53:45;;;;;;;57.30;15.77;;;4.60;99.70;;;;;;5029142;28;20448;-59
2021/10/15 04:56:11;;;;;;;64.37;18.60;;;4.60;99.70;;;;;;5028987;28;20481;-59
2021/10/15 04:58:38;;;;;;;59.47;16.70;;;4.50;99.70;;;;;;5029530;28;20837;-59
2021/10/15 05:01:05;;;;;;;57.17;16.53;;;4.40;99.70;;;;;;5029802;28;20471;-60
2021/10/15 05:03:31;;;;;;;59.50;15.73;;;4.50;99.70;;;;;;5029536;28;20448;-63
2021/10/15 05:05:58;;;;;;;61.20;18.20;;;4.30;99.70;;;;;;5029476;28;20543;-61
2021/10/15 05:08:30;;;;;;;59.33;19.70;;;4.40;99.70;;;;;;5029441;28;20448;-60
2021/10/15 05:10:58;;;;;;;60.30;16.33;;;4.50;99.70;;;;;;5027351;28;20475;-61
2021/10/15 05:13:25;;;;;;;62.90;20.10;;;4.50;99.70;;;;;;5029394;28;20951;-64
2021/10/15 05:15:52;;;;;;;60.93;19.90;;;4.80;99.70;;;;;;5029224;28;20480;-61
2021/10/15 05:18:19;;;;;;;61.53;17.63;;;4.70;99.70;;;;;;5028857;28;20476;-60
2021/10/15 05:20:46;;;;;;;64.63;27.53;;;4.80;99.70;;;;;;5029516;28;20486;-61
2021/10/15 05:23:13;;;;;;;61.40;21.13;;;4.80;99.70;;;;;;5028967;28;20452;-62
2021/10/15 05:25:41;;;;;;;63.30;24.50;;;4.70;99.70;;;;;;5029179;28;20609;-61
2021/10/15 05:28:09;;;;;;;57.50;16.00;;;4.50;99.70;;;;;;5029007;28;20440;-59
2021/10/15 05:30:36;;;;;;;62.17;23.80;;;4.50;99.70;;;;;;5029620;28;20848;-61
2021/10/15 05:33:02;;;;;;;59.17;18.73;;;4.40;99.70;;;;;;5028867;28;20951;-61
2021/10/15 05:35:29;;;;;;;63.63;25.80;;;4.60;99.70;;;;;;5032767;28;20479;-61
2021/10/15 05:37:56;;;;;;;70.23;26.00;;;4.50;99.70;;;;;;5032301;28;20440;-62
2021/10/15 05:40:23;;;;;;;63.97;27.77;;;4.50;99.70;;;;;;5032885;28;20460;-61
2021/10/15 05:42:50;;;;;;;74.20;32.30;;;4.40;99.70;;;;;;5032885;28;20464;-63
2021/10/15 05:45:19;;;;;;;84.50;31.67;;;4.30;99.70;;;;;;5032594;28;20447;-62
2021/10/15 05:47:46;;;;;;;87.03;29.37;;;4.30;99.70;;;;;;5032120;28;20441;-63
2021/10/15 05:50:13;;;;;;;98.67;34.90;;;4.30;99.70;;;;;;5032535;28;21440;-61
2021/10/15 05:52:42;;;;;;;104.50;32.10;;;4.30;99.70;;;;;;5032453;28;20543;-60
2021/10/15 05:55:21;;;;;;;97.50;29.50;;;4.30;99.70;;;;;;5032353;28;20449;-60
2021/10/15 06:00:34;;;;;;;88.40;30.10;;;4.50;99.70;;;;;;5032385;28;20460;-62
2021/10/15 06:03:01;;;;;;;86.30;28.03;;;4.30;99.70;;;;;;5032286;28;20456;-63
2021/10/15 06:16:33;;;;;;;64.07;27.27;;;4.40;99.70;;;;;;5031715;28;20475;-63
2021/10/15 06:19:05;;;;;;;63.40;26.00;;;4.50;99.70;;;;;;5031887;28;20503;-60
2021/10/15 06:21:32;;;;;;;64.00;27.17;;;4.50;99.70;;;;;;5031978;28;20487;-63
2021/10/15 06:23:58;;;;;;;63.63;24.67;;;4.60;99.70;;;;;;5031663;28;20475;-63
2021/10/15 06:26:25;;;;;;;65.37;30.13;;;4.60;99.70;;;;;;5031687;28;20449;-61
2021/10/15 06:28:52;;;;;;;63.20;25.50;;;4.60;99.70;;;;;;5031983;28;20831;-61
2021/10/15 06:31:19;;;;;;;67.07;30.77;;;4.60;99.70;;;;;;5031920;28;20893;-63
2021/10/15 06:33:47;;;;;;;68.93;33.00;;;4.90;99.70;;;;;;5031571;28;20452;-59
2021/10/15 06:36:13;;;;;;;61.17;23.00;;;4.80;99.70;;;;;;5028098;28;20533;-59
2021/10/15 06:38:40;;;;;;;63.60;27.10;;;4.90;99.70;;;;;;5025100;28;20465;-60
2021/10/15 06:41:07;;;;;;;69.67;34.13;;;5.00;99.70;;;;;;5024192;28;21037;-62
2021/10/15 06:43:34;;;;;;;70.73;33.50;;;5.10;99.70;;;;;;5026552;28;20460;-62
2021/10/15 06:46:00;;;;;;;69.33;31.27;;;5.00;99.70;;;;;;5021240;28;20456;-51
2021/10/15 06:48:27;;;;;;;83.87;35.27;;;5.00;99.70;;;;;;5017664;28;20457;-59
2021/10/15 06:50:55;;;;;;;97.80;34.33;;;5.00;99.70;;;;;;5021244;28;20476;-60
2021/10/15 06:53:22;;;;;;;77.00;28.60;;;5.00;99.70;;;;;;5024674;28;20979;-59
2021/10/15 06:55:48;;;;;;;74.20;31.40;;;5.10;99.70;;;;;;5030389;28;20538;-59
2021/10/15 06:58:15;;;;;;;80.97;33.23;;;5.10;99.70;;;;;;5030510;28;20440;-60
2021/10/15 07:00:42;;;;;;;83.03;36.40;;;5.20;99.70;;;;;;5026824;28;20480;-61
2021/10/15 07:03:16;;;;;;;88.33;36.40;;;5.10;99.70;;;;;;5023458;28;20832;-62
2021/10/15 07:05:43;;;;;;;100.60;40.40;;;5.10;99.70;;;;;;5014641;28;20465;-61
2021/10/15 07:08:11;;;;;;;106.00;41.30;;;5.20;99.70;;;;;;5009035;28;20453;-61
2021/10/15 07:10:38;;;;;;;83.13;35.97;;;5.20;99.70;;;;;;5007774;28;20473;-60
2021/10/15 07:13:06;;;;;;;80.30;31.23;;;5.40;99.70;;;;;;5012731;28;20461;-61
2021/10/15 07:15:33;;;;;;;65.87;20.53;;;5.40;99.70;;;;;;5019282;28;20461;-56
2021/10/15 07:18:01;;;;;;;70.10;29.93;;;5.40;99.70;;;;;;5025940;28;20461;-60
2021/10/15 07:20:28;;;;;;;65.87;23.33;;;5.40;99.70;;;;;;5029543;28;20472;-61
2021/10/15 07:22:55;;;;;;;65.00;29.23;;;5.40;99.70;;;;;;5028620;28;20441;-60
2021/10/15 07:25:25;;;;;;;63.40;26.60;;;5.50;99.70;;;;;;5025104;28;20465;-61
2021/10/15 07:27:53;;;;;;;64.83;28.63;;;5.80;99.70;;;;;;5029733;28;20766;-59
2021/10/15 07:30:19;;;;;;;62.30;24.97;;;5.50;99.70;;;;;;5023062;28;20481;-56
2021/10/15 07:32:49;;;;;;;66.37;27.57;;;5.50;99.70;;;;;;5026248;28;20449;-61
2021/10/15 07:35:15;;;;;;;62.83;25.13;;;5.30;99.70;;;;;;5029211;28;20468;-60
2021/10/15 07:37:42;;;;;;;68.33;31.43;;;5.70;99.70;;;;;;5030814;28;20488;-60
2021/10/15 07:40:10;;;;;;;70.03;28.53;;;5.60;99.70;;;;;;5030043;28;20468;-63
2021/10/15 07:42:38;;;;;;;65.50;30.13;;;5.60;99.70;;;;;;5014107;28;20453;-61
2021/10/15 07:45:06;;;;;;;64.23;25.47;;;5.70;99.70;;;;;;5026064;28;20907;-62
2021/10/15 07:47:33;;;;;;;63.60;25.63;;;5.90;99.70;;;;;;5029718;28;20460;-60
2021/10/15 07:49:59;;;;;;;61.20;27.23;;;6.00;99.70;;;;;;5029211;28;20507;-61
2021/10/15 07:52:26;;;;;;;63.83;26.00;;;6.30;99.70;;;;;;5028769;28;20460;-59
2021/10/15 07:54:53;;;;;;;60.73;24.20;;;6.50;99.70;;;;;;5023284;28;20543;-60
2021/10/15 07:57:20;;;;;;;65.90;24.80;;;6.80;99.70;;;;;;5010625;28;20485;-61
2021/10/15 07:59:48;;;;;;;67.67;20.33;;;6.70;99.70;;;;;;5017884;28;20476;-61
2021/10/15 08:02:14;;;;;;;60.80;17.47;;;6.80;99.70;;;;;;5022377;28;20472;-62
2021/10/15 08:04:42;;;;;;;61.93;18.43;;;7.00;99.70;;;;;;5024221;28;20462;-59
2021/10/15 08:07:08;;;;;;;63.43;20.13;;;7.30;99.70;;;;;;5020552;28;20473;-63
2021/10/15 08:09:35;;;;;;;63.80;19.20;;;7.90;99.70;;;;;;5017674;28;20484;-60
2021/10/15 08:12:02;;;;;;;61.20;17.13;;;8.10;99.70;;;;;;5017510;28;20458;-59
2021/10/15 08:14:28;;;;;;;56.37;13.60;;;8.50;99.70;;;;;;5022201;28;20468;-60
2021/10/15 08:16:56;;;;;;;54.80;11.90;;;9.10;99.70;;;;;;5028529;28;20480;-60
2021/10/15 08:19:23;;;;;;;57.17;20.93;;;9.60;99.70;;;;;;5029961;28;20437;-61
2021/10/15 08:21:50;;;;;;;58.10;21.93;;;9.80;99.70;;;;;;5029551;28;20448;-59
2021/10/15 08:24:16;;;;;;;60.00;31.70;;;10.10;99.70;;;;;;5029980;28;20449;-60
2021/10/15 08:26:43;;;;;;;69.50;42.20;;;10.20;99.70;;;;;;5028708;28;20824;-62
2021/10/15 08:29:10;;;;;;;71.80;39.27;;;10.20;99.70;;;;;;5029844;28;20923;-61
2021/10/15 08:31:36;;;;;;;68.30;43.83;;;9.80;99.70;;;;;;5029656;28;20468;-60
2021/10/15 08:34:07;;;;;;;71.70;36.47;;;9.60;99.70;;;;;;5029761;28;20449;-58
2021/10/15 08:36:34;;;;;;;57.27;22.60;;;9.20;99.70;;;;;;5029575;28;20518;-60
2021/10/15 08:39:01;;;;;;;56.63;18.53;;;9.10;99.70;;;;;;5029521;28;20452;-62
2021/10/15 08:41:28;;;;;;;57.80;19.57;;;9.00;99.70;;;;;;5037619;28;20465;-59
2021/10/15 08:43:57;;;;;;;57.80;11.80;;;9.00;99.70;;;;;;5043263;28;20440;-60
2021/10/15 08:46:24;;;;;;;55.93;11.20;;;9.40;99.70;;;;;;5048065;28;20942;-59
2021/10/15 08:48:52;;;;;;;62.00;11.17;;;9.50;99.70;;;;;;5027716;28;20448;-56
2021/10/15 08:51:21;;;;;;;61.13;11.50;;;9.50;99.70;;;;;;5030885;28;20481;-58
2021/10/15 08:53:50;;;;;;;54.63;12.27;;;9.70;99.70;;;;;;5027277;28;20460;-57
2021/10/15 08:56:17;;;;;;;58.17;13.33;;;10.00;99.70;;;;;;5027723;28;20464;-58
2021/10/15 08:58:45;;;;;;;57.67;13.23;;;10.30;99.70;;;;;;5037365;28;20441;-62
2021/10/15 09:01:12;;;;;;;57.67;15.07;;;10.30;99.70;;;;;;5034976;28;21014;-59
2021/10/15 09:03:39;;;;;;;56.10;15.53;;;10.60;99.70;;;;;;5031167;28;20469;-62
2021/10/15 09:06:08;;;;;;;60.60;16.40;;;10.50;99.70;;;;;;5037635;28;20445;-57
2021/10/15 09:08:49;;;;;;;58.60;21.60;;;10.60;99.70;;;;;;5036548;28;20444;-63
2021/10/15 09:11:31;;;;;;;55.37;17.73;;;11.10;99.70;;;;;;5038553;28;20460;-61
2021/10/15 09:14:12;;;;;;;58.03;16.57;;;11.80;99.70;;;;;;5038842;28;20432;-57
2021/10/15 09:16:53;;;;;;;67.50;34.87;;;12.30;99.70;;;;;;5038559;28;20475;-61
2021/10/15 09:19:25;;;;;;;69.17;47.60;;;12.30;99.70;;;;;;5040712;28;20440;-61
2021/10/15 09:22:04;;;;;;;65.30;39.40;;;12.20;99.70;;;;;;5042372;28;20458;-63
2021/10/15 09:24:37;;;;;;;62.70;31.97;;;11.80;99.70;;;;;;5043248;28;20428;-59
2021/10/15 09:27:14;;;;;;;64.30;32.10;;;11.70;99.70;;;;;;5042267;28;20440;-58
2021/10/15 09:29:43;;;;;;;62.70;29.83;;;11.50;99.70;;;;;;5040952;28;20473;-58
2021/10/15 09:32:09;;;;;;;64.70;31.80;;;11.40;99.70;;;;;;5040428;28;20490;-55
2021/10/15 09:34:36;;;;;;;63.60;29.50;;;11.40;99.70;;;;;;5042212;28;20459;-63
2021/10/15 09:37:11;;;;;;;57.27;23.00;;;11.50;99.70;;;;;;5041886;28;20472;-62
2021/10/15 09:39:39;;;;;;;60.10;22.17;;;11.70;99.70;;;;;;5039945;28;20495;-62
2021/10/15 09:42:21;;;;;;;57.90;19.77;;;12.20;99.70;;;;;;5040576;28;20440;-60
2021/10/15 09:44:48;;;;;;;57.97;21.27;;;12.20;99.70;;;;;;5039403;28;20464;-63
2021/10/15 09:47:18;;;;;;;61.00;22.87;;;12.10;99.70;;;;;;5037935;28;20451;-58
2021/10/15 09:49:50;;;;;;;61.13;20.80;;;12.00;99.70;;;;;;5038594;28;20971;-59
2021/10/15 09:52:25;;;;;;;59.03;17.00;;;11.80;99.70;;;;;;5040404;28;20450;-59
2021/10/15 09:54:57;;;;;;;55.60;13.33;;;11.70;99.70;;;;;;5041863;28;20548;-57
2021/10/15 09:57:36;;;;;;;58.37;12.90;;;11.60;99.70;;;;;;5037071;28;20473;-54
2021/10/15 10:00:07;;;;;;;58.47;12.73;;;11.40;99.70;;;;;;5040521;28;20460;-60
2021/10/15 10:02:35;;;;;;;55.87;12.03;;;11.40;99.70;;;;;;5038023;28;20448;-54
2021/10/15 10:05:04;;;;;;;59.23;11.43;;;11.40;99.70;;;;;;5038026;28;20947;-54
2021/10/15 10:07:34;;;;;;;54.07;11.73;;;11.40;99.70;;;;;;5034244;28;20471;-59
2021/10/15 10:10:02;;;;;;;55.47;12.30;;;11.40;99.70;;;;;;5039614;28;20886;-58
2021/10/15 10:12:29;;;;;;;56.30;12.37;;;11.50;99.70;;;;;;5040232;28;20448;-56
2021/10/15 10:14:56;;;;;;;56.40;11.63;;;11.50;99.70;;;;;;5040856;28;20448;-55
2021/10/15 10:17:26;;;;;;;53.27;10.70;;;11.60;99.70;;;;;;5039653;28;20480;-56
2021/10/15 10:20:04;;;;;;;57.50;14.43;;;11.60;99.70;;;;;;5040532;28;20475;-52
2021/10/15 10:22:33;;;;;;;56.40;11.20;;;11.70;99.70;;;;;;5038198;28;20458;-57
2021/10/15 10:25:00;;;;;;;54.83;10.43;;;11.80;99.70;;;;;;5039933;28;20834;-58
2021/10/15 10:27:30;;;;;;;52.60;9.77;;;11.80;99.70;;;;;;5037479;28;20441;-59
2021/10/15 10:29:58;;;;;;;56.20;10.80;;;11.80;99.70;;;;;;5040349;28;20496;-60
2021/10/15 10:32:26;;;;;;;59.17;11.47;;;12.00;99.70;;;;;;5039798;28;20452;-57
2021/10/15 10:34:53;;;;;;;54.30;12.00;;;12.10;99.70;;;;;;5040691;28;20439;-58
2021/10/15 10:37:21;;;;;;;55.07;13.20;;;12.20;99.70;;;;;;5041466;28;20479;-56
2021/10/15 10:39:49;;;;;;;56.60;14.20;;;12.20;99.70;;;;;;5037906;28;20548;-57
2021/10/15 10:42:18;;;;;;;58.00;15.63;;;12.20;99.70;;;;;;5035337;28;20457;-60
2021/10/15 10:45:10;;;;;;;58.83;17.10;;;12.30;99.70;;;;;;5032291;28;20469;-59
2021/10/15 10:47:37;;;;;;;60.97;15.27;;;12.40;99.70;;;;;;5037600;28;20460;-60
2021/10/15 10:50:11;;;;;;;58.70;14.97;;;12.40;99.70;;;;;;5040326;28;20459;-63
2021/10/15 10:52:42;;;;;;;56.87;15.70;;;12.30;99.70;;;;;;5037732;28;20813;-60
2021/10/15 10:55:08;;;;;;;53.50;13.03;;;12.30;99.70;;;;;;5039577;28;20586;-62
2021/10/15 10:57:41;;;;;;;53.87;12.77;;;12.30;99.70;;;;;;5035959;28;20472;-58
2021/10/15 11:00:23;;;;;;;57.13;16.00;;;12.40;99.70;;;;;;5040951;28;20543;-58
2021/10/15 11:02:52;;;;;;;55.47;15.90;;;12.50;99.70;;;;;;5040869;28;20479;-62
2021/10/15 11:05:36;;;;;;;59.20;14.97;;;12.60;99.70;;;;;;5037955;28;20445;-63
2021/10/15 11:08:29;;;;;;;57.60;18.23;;;12.60;99.70;;;;;;5037288;28;20459;-60
2021/10/15 11:11:46;;;;;;;53.60;12.00;;;12.50;99.70;;;;;;5040257;28;20471;-61
2021/10/15 11:14:55;;;;;;;53.73;12.07;;;12.40;99.70;;;;;;5039615;28;20460;-62
2021/10/15 11:17:28;;;;;;;51.90;10.03;;;12.60;99.70;;;;;;5008717;28;20479;-61
2021/10/15 11:20:09;;;;;;;51.00;9.30;;;12.30;99.70;;;;;;5026591;28;20493;-62
2021/10/15 11:22:36;;;;;;;55.60;10.20;;;12.30;99.70;;;;;;5026905;28;20449;-57
2021/10/15 11:25:03;;;;;;;50.23;8.83;;;12.50;99.70;;;;;;5043733;28;20882;-63
2021/10/15 11:27:30;;;;;;;54.27;11.00;;;12.60;99.70;;;;;;5030793;28;20467;-61
2021/10/15 11:29:59;;;;;;;50.93;9.13;;;12.50;99.70;;;;;;5030345;28;20999;-62
2021/10/15 11:32:33;;;;;;;52.73;9.70;;;12.60;99.70;;;;;;5030288;28;20457;-62
2021/10/15 11:35:11;;;;;;;50.93;9.30;;;12.60;99.70;;;;;;5030789;28;20506;-61
2021/10/15 11:37:49;;;;;;;49.90;8.30;;;12.80;99.70;;;;;;5031801;28;20484;-58
2021/10/15 11:40:19;;;;;;;49.93;8.07;;;12.90;99.70;;;;;;5028234;28;20507;-60
2021/10/15 11:42:47;;;;;;;50.77;10.87;;;12.90;99.70;;;;;;5027492;28;20453;-59
2021/10/15 11:45:25;;;;;;;50.30;9.50;;;13.00;99.70;;;;;;5031597;28;20465;-61
2021/10/15 11:48:04;;;;;;;52.10;9.17;;;13.00;99.70;;;;;;5032498;28;20471;-61
2021/10/15 11:50:44;;;;;;;50.23;8.23;;;12.90;99.70;;;;;;5036013;28;21062;-60
2021/10/15 11:53:13;;;;;;;55.53;11.03;;;13.00;99.70;;;;;;5033445;28;21007;-59
2021/10/15 11:55:41;;;;;;;51.83;12.37;;;13.00;99.70;;;;;;5037147;28;20461;-59
2021/10/15 11:58:23;;;;;;;51.33;9.07;;;13.00;99.70;;;;;;5035635;28;20847;-59
2021/10/15 12:01:15;;;;;;;49.30;9.07;;;13.00;99.70;;;;;;5038212;28;20476;-61
2021/10/15 12:03:47;;;;;;;51.30;11.40;;;13.10;99.70;;;;;;5031043;28;20459;-60
2021/10/15 12:06:32;;;;;;;51.20;10.43;;;13.10;99.70;;;;;;5036738;28;20451;-63
2021/10/15 12:09:01;;;;;;;48.60;10.00;;;13.10;99.70;;;;;;5038010;28;20447;-58
2021/10/15 12:11:42;;;;;;;49.60;9.50;;;13.10;99.70;;;;;;5031539;28;21025;-63
2021/10/15 12:14:10;;;;;;;49.07;10.77;;;13.20;99.70;;;;;;5029787;28;20464;-58
2021/10/15 12:16:47;;;;;;;49.17;9.40;;;13.30;99.70;;;;;;5009645;28;20438;-61
2021/10/15 12:19:22;;;;;;;49.33;10.10;;;13.40;99.70;;;;;;5009441;28;20846;-63
2021/10/15 12:21:51;;;;;;;49.30;10.40;;;13.40;99.70;;;;;;5018132;28;20456;-61
2021/10/15 12:24:27;;;;;;;51.47;12.10;;;13.40;99.70;;;;;;5029512;28;20456;-60
2021/10/15 12:27:19;;;;;;;48.47;8.30;;;13.40;99.70;;;;;;5027985;28;20452;-63
2021/10/15 12:29:49;;;;;;;47.70;9.20;;;13.40;99.70;;;;;;5014345;28;20564;-60
2021/10/15 12:32:21;;;;;;;50.50;10.50;;;13.30;99.70;;;;;;5027077;28;20460;-60
2021/10/15 12:35:04;;;;;;;47.80;9.73;;;13.30;99.70;;;;;;5028853;28;20471;-61
2021/10/15 12:37:40;;;;;;;48.83;11.27;;;13.30;99.70;;;;;;5028788;28;20483;-64
2021/10/15 12:40:26;;;;;;;47.97;10.30;;;13.30;99.70;;;;;;5028980;28;20468;-62
2021/10/15 12:43:09;;;;;;;49.30;12.30;;;13.40;99.70;;;;;;5029305;28;20448;-63
2021/10/15 12:45:39;;;;;;;48.97;9.27;;;13.40;99.70;;;;;;5029026;28;20472;-63
2021/10/15 12:48:08;;;;;;;51.57;11.37;;;13.50;99.70;;;;;;5027981;28;20531;-63
2021/10/15 12:50:38;;;;;;;50.10;12.40;;;13.50;99.70;;;;;;5028744;28;20864;-63
2021/10/15 12:53:16;;;;;;;52.13;16.53;;;13.60;99.70;;;;;;5034701;28;20958;-61
2021/10/15 12:55:53;;;;;;;49.47;9.50;;;13.60;99.70;;;;;;5034299;28;20444;-64
2021/10/15 12:58:20;;;;;;;49.70;10.10;;;13.60;99.70;;;;;;5044381;28;20532;-61
2021/10/15 13:00:49;;;;;;;48.13;8.27;;;13.60;99.70;;;;;;5025895;28;20475;-63
2021/10/15 13:03:16;;;;;;;49.30;10.37;;;13.60;99.70;;;;;;5027770;28;20828;-62
2021/10/15 13:05:44;;;;;;;45.20;6.87;;;13.60;99.70;;;;;;5029048;28;20440;-61
2021/10/15 13:08:11;;;;;;;50.87;8.40;;;13.50;99.70;;;;;;5028534;28;20451;-60
2021/10/15 13:10:37;;;;;;;46.00;7.10;;;13.40;99.70;;;;;;5021963;28;20494;-59
2021/10/15 13:13:04;;;;;;;45.83;7.77;;;13.30;99.70;;;;;;5028736;28;20453;-60
2021/10/15 13:15:31;;;;;;;51.50;7.73;;;13.30;99.70;;;;;;5024402;28;20445;-61
2021/10/15 13:17:58;;;;;;;71.70;16.87;;;13.30;99.70;;;;;;5018342;28;20487;-60
2021/10/15 13:20:26;;;;;;;64.43;12.27;;;13.30;99.70;;;;;;5024554;28;20487;-63
2021/10/15 13:22:58;;;;;;;52.53;10.10;;;13.50;99.70;;;;;;5020873;28;20884;-59
2021/10/15 13:25:25;;;;;;;57.10;10.83;;;13.70;99.70;;;;;;5028005;28;20456;-60
2021/10/15 13:27:53;;;;;;;53.67;10.00;;;13.70;99.70;;;;;;5029453;28;20444;-61
2021/10/15 13:30:20;;;;;;;48.50;7.80;;;13.70;99.70;;;;;;5017410;28;20485;-63
2021/10/15 13:32:47;;;;;;;47.20;7.57;;;13.60;99.70;;;;;;5023043;28;20980;-61
2021/10/15 13:35:14;;;;;;;46.37;6.53;;;13.60;99.70;;;;;;5024689;28;20453;-60
2021/10/15 13:37:43;;;;;;;48.10;7.40;;;13.60;99.70;;;;;;5022825;28;20960;-61
2021/10/15 13:40:16;;;;;;;47.67;7.20;;;13.60;99.70;;;;;;5014309;28;20575;-63
2021/10/15 13:45:38;;;;;;;51.07;9.00;;;13.80;99.70;;;;;;5025946;28;20453;-62
2021/10/15 13:50:49;;;;;;;54.23;9.40;;;13.70;99.70;;;;;;5027854;28;20523;-62
2021/10/15 13:53:16;;;;;;;53.87;9.47;;;13.70;99.70;;;;;;5022087;28;20456;-62
2021/10/15 13:55:49;;;;;;;47.40;7.10;;;13.70;99.70;;;;;;5030396;28;20901;-65
2021/10/15 13:58:22;;;;;;;46.53;6.70;;;13.70;99.70;;;;;;5032242;28;20480;-59
2021/10/15 14:00:50;;;;;;;44.70;6.30;;;13.70;99.70;;;;;;5032290;28;20476;-56
2021/10/15 14:03:29;;;;;;;47.50;8.17;;;13.60;99.70;;;;;;5032991;28;20836;-60
2021/10/15 14:05:55;;;;;;;53.83;8.60;;;13.60;99.70;;;;;;5035789;28;20477;-57
2021/10/15 14:08:23;;;;;;;62.60;12.57;;;13.60;99.70;;;;;;5025840;28;20465;-55
2021/10/15 14:10:51;;;;;;;58.00;10.07;;;13.60;99.70;;;;;;5017497;28;20488;-61
2021/10/15 14:13:18;;;;;;;51.33;9.30;;;13.60;99.70;;;;;;5032092;28;20515;-59
2021/10/15 14:15:45;;;;;;;47.70;8.53;;;13.60;99.70;;;;;;5026140;28;20968;-61
2021/10/15 14:18:12;;;;;;;45.33;8.03;;;13.50;99.70;;;;;;5031658;28;20484;-61
2021/10/15 14:20:39;;;;;;;49.50;8.77;;;13.40;99.70;;;;;;5038531;28;21091;-62
2021/10/15 14:23:07;;;;;;;49.60;8.27;;;13.40;99.70;;;;;;5040545;28;20536;-61
2021/10/15 14:25:35;;;;;;;47.60;9.67;;;13.40;99.70;;;;;;5042353;28;20445;-61
2021/10/15 14:28:04;;;;;;;51.37;11.67;;;13.30;99.70;;;;;;5035767;28;20457;-63
2021/10/15 14:30:31;;;;;;;46.90;8.10;;;13.30;99.70;;;;;;5037183;28;20467;-62
2021/10/15 14:32:57;;;;;;;46.50;8.87;;;13.20;99.70;;;;;;5041929;28;20498;-61
2021/10/15 14:35:24;;;;;;;49.27;10.97;;;13.20;99.70;;;;;;5041620;28;20448;-62
2021/10/15 14:37:51;;;;;;;50.83;8.97;;;13.10;99.70;;;;;;5036943;28;20463;-62
2021/10/15 14:40:18;;;;;;;49.60;9.60;;;13.20;99.70;;;;;;5041314;28;20460;-61
2021/10/15 14:42:45;;;;;;;53.60;9.77;;;13.20;99.70;;;;;;5034771;28;20448;-60
2021/10/15 14:45:13;;;;;;;51.70;12.20;;;13.20;99.70;;;;;;5032128;28;20451;-61
2021/10/15 14:47:40;;;;;;;52.23;10.97;;;13.10;99.70;;;;;;5041453;28;20483;-62
2021/10/15 14:50:08;;;;;;;57.07;13.50;;;13.10;99.70;;;;;;5031793;28;20476;-62
2021/10/15 14:52:34;;;;;;;53.60;11.23;;;13.10;99.70;;;;;;5029101;28;20449;-63
2021/10/15 14:55:01;;;;;;;51.47;12.47;;;13.10;99.70;;;;;;5026422;28;20442;-60
2021/10/15 14:57:28;;;;;;;48.90;9.57;;;13.10;99.70;;;;;;5041691;28;20448;-63
2021/10/15 14:59:55;;;;;;;48.87;8.70;;;13.10;99.70;;;;;;5049893;28;20484;-59
2021/10/15 15:02:23;;;;;;;57.57;12.37;;;13.00;99.70;;;;;;5029773;28;20469;-63
2021/10/15 15:04:50;;;;;;;53.73;12.40;;;13.10;99.70;;;;;;5031270;28;20464;-63
2021/10/15 15:07:16;;;;;;;49.40;11.30;;;13.10;99.70;;;;;;5040150;28;20450;-63
2021/10/15 15:09:43;;;;;;;47.80;9.40;;;13.00;99.70;;;;;;5041325;28;20537;-64
2021/10/15 15:12:10;;;;;;;47.63;8.67;;;13.00;99.70;;;;;;5041073;28;20451;-64
2021/10/15 15:14:37;;;;;;;47.43;9.63;;;12.90;99.70;;;;;;5039611;28;20472;-63
2021/10/15 15:17:04;;;;;;;48.50;9.37;;;12.90;99.70;;;;;;5043596;28;20444;-64
2021/10/15 15:19:32;;;;;;;47.03;7.00;;;12.80;99.70;;;;;;5030910;28;20503;-62
2021/10/15 15:22:00;;;;;;;45.67;6.87;;;12.70;99.70;;;;;;5030735;28;20916;-62
2021/10/15 15:24:27;;;;;;;46.77;6.90;;;12.70;99.70;;;;;;5035519;28;20444;-61
2021/10/15 15:26:54;;;;;;;47.40;7.23;;;12.60;99.70;;;;;;5032758;28;20812;-62
2021/10/15 15:29:21;;;;;;;49.53;7.87;;;12.50;99.70;;;;;;5026814;28;20456;-62
2021/10/15 15:31:48;;;;;;;47.97;8.13;;;12.50;99.70;;;;;;5029941;28;20758;-62
2021/10/15 15:34:15;;;;;;;47.87;7.57;;;12.50;99.70;;;;;;5022268;28;20465;-62
2021/10/15 15:36:44;;;;;;;48.40;6.77;;;12.40;99.70;;;;;;5026692;28;20476;-63
2021/10/15 15:39:11;;;;;;;47.10;7.10;;;12.40;99.70;;;;;;5030207;28;20486;-60
2021/10/15 15:41:39;;;;;;;48.00;8.10;;;12.30;99.70;;;;;;5030146;28;20472;-63
2021/10/15 15:44:11;;;;;;;46.37;6.83;;;12.20;99.70;;;;;;5029756;28;20488;-61
2021/10/15 15:46:41;;;;;;;46.90;6.90;;;12.30;99.70;;;;;;5029702;28;20865;-60
2021/10/15 15:49:08;;;;;;;48.70;7.60;;;12.20;99.70;;;;;;5029145;28;20901;-62
2021/10/15 15:51:35;;;;;;;50.17;9.10;;;12.20;99.70;;;;;;5025161;28;20472;-62
2021/10/15 15:54:03;;;;;;;46.90;8.97;;;12.10;99.70;;;;;;5046931;28;20452;-63
2021/10/15 15:56:30;;;;;;;48.03;8.57;;;12.00;99.70;;;;;;5030237;28;20448;-64
2021/10/15 15:58:57;;;;;;;49.87;12.10;;;11.90;99.70;;;;;;5029030;28;20479;-63
2021/10/15 16:01:24;;;;;;;48.07;9.47;;;11.80;99.70;;;;;;5029637;28;20991;-61
2021/10/15 16:03:53;;;;;;;50.23;10.50;;;11.60;99.70;;;;;;5030446;28;20444;-63
2021/10/15 16:06:20;;;;;;;52.73;11.80;;;11.50;99.70;;;;;;5029127;28;20532;-57
2021/10/15 16:08:46;;;;;;;49.10;11.60;;;11.50;99.70;;;;;;5029807;28;20447;-57
2021/10/15 16:11:15;;;;;;;46.33;9.40;;;11.30;99.70;;;;;;5029838;28;20471;-60
2021/10/15 16:13:43;;;;;;;49.30;11.83;;;11.30;99.70;;;;;;5030192;28;20516;-62
2021/10/15 16:16:10;;;;;;;49.47;12.23;;;11.20;99.70;;;;;;5030244;28;20445;-62
2021/10/15 16:18:37;;;;;;;52.33;10.73;;;11.20;99.70;;;;;;5017551;28;20467;-62
2021/10/15 16:21:04;;;;;;;45.57;8.40;;;11.10;99.70;;;;;;5012081;28;20496;-62
2021/10/15 16:23:30;;;;;;;51.80;12.43;;;11.00;99.70;;;;;;5013487;28;20475;-62
2021/10/15 16:25:57;;;;;;;48.80;12.63;;;10.90;99.70;;;;;;5015460;28;20809;-63
2021/10/15 16:28:25;;;;;;;50.83;9.03;;;10.80;99.70;;;;;;5017659;28;20552;-62
2021/10/15 16:30:52;;;;;;;45.30;7.40;;;10.70;99.70;;;;;;5014750;28;20473;-59
2021/10/15 16:33:19;;;;;;;50.33;13.37;;;10.60;99.70;;;;;;5020834;28;20451;-59
2021/10/15 16:35:46;;;;;;;49.13;9.40;;;10.50;99.70;;;;;;5014919;28;20466;-63
2021/10/15 16:38:12;;;;;;;51.10;12.00;;;10.40;99.70;;;;;;5014995;28;20476;-62
2021/10/15 16:40:39;;;;;;;48.20;9.30;;;10.30;99.70;;;;;;5023604;28;20575;-58
2021/10/15 16:43:06;;;;;;;48.93;12.97;;;10.30;99.70;;;;;;5012881;28;20449;-62
2021/10/15 16:45:34;;;;;;;50.77;15.40;;;10.20;99.70;;;;;;5025467;28;20819;-60
2021/10/15 16:48:01;;;;;;;48.67;13.10;;;10.20;99.70;;;;;;5029298;28;20448;-61
2021/10/15 16:50:28;;;;;;;49.80;12.50;;;10.10;99.70;;;;;;5025491;28;20853;-57
2021/10/15 16:52:55;;;;;;;53.53;14.40;;;10.00;99.70;;;;;;5018417;28;21193;-55
2021/10/15 16:55:22;;;;;;;60.30;16.93;;;10.00;99.70;;;;;;5024010;28;20976;-59
2021/10/15 16:57:49;;;;;;;62.73;20.63;;;9.90;99.70;;;;;;5029546;28;20455;-59
2021/10/15 17:00:17;;;;;;;62.27;18.33;;;10.00;99.70;;;;;;5029378;28;20484;-60
2021/10/15 17:02:45;;;;;;;72.03;18.83;;;10.00;99.70;;;;;;5024162;28;20466;-63
2021/10/15 17:05:12;;;;;;;67.80;18.03;;;9.90;99.70;;;;;;5017604;28;20468;-55